sensor_id;sensor_type;location;lat;lon;timestamp;temperature;humidity
7399;DHT22;3740;50.700;7.184;2023-12-20T00:02:20;8.20;99.90
7399;DHT22;3740;50.700;7.184;2023-12-20T00:04:46;8.30;99.90
7399;DHT22;3740;50.700;7.184;2023-12-20T00:07:11;8.20;99.90
7399;DHT22;3740;50.700;7.184;2023-12-20T00:09:37;8.20;99.90
7399;DHT22;3740;50.700;7.184;2023-12-20T00:12:03;8.20;99.90
7399;DHT22;3740;50.700;7.184;2023-12-20T00:14:28;8.20;99.90
7399;DHT22;3740;50.700;7.184;2023-12-20T00:16:54;8.30;99.90
7399;DHT22;3740;50.700;7.184;2023-12-20T00:19:19;8.30;99.90
7399;DHT22;3740;50.700;7.184;2023-12-20T00:21:45;8.30;99.90
7399;DHT22;3740;50.700;7.184;2023-12-20T00:24:10;8.30;99.90
7399;DHT22;3740;50.700;7.184;2023-12-20T00:26:36;8.30;99.90
7399;DHT22;3740;50.700;7.184;2023-12-20T00:29:01;8.30;99.90
7399;DHT22;3740;50.700;7.184;2023-12-20T00:31:27;8.30;99.90
7399;DHT22;3740;50.700;7.184;2023-12-20T00:33:53;8.30;99.90
7399;DHT22;3740;50.700;7.184;2023-12-20T00:36:18;8.40;99.90
7399;DHT22;3740;50.700;7.184;2023-12-20T00:38:44;8.40;99.90
7399;DHT22;3740;50.700;7.184;2023-12-20T00:41:10;8.40;99.90
7399;DHT22;3740;50.700;7.184;2023-12-20T00:43:35;8.40;99.90
7399;DHT22;3740;50.700;7.184;2023-12-20T00:46:01;8.40;99.90
7399;DHT22;3740;50.700;7.184;2023-12-20T00:48:27;8.40;99.90
7399;DHT22;3740;50.700;7.184;2023-12-20T00:50:52;8.50;99.90
7399;DHT22;3740;50.700;7.184;2023-12-20T00:53:18;8.40;99.90
7399;DHT22;3740;50.700;7.184;2023-12-20T00:55:44;8.50;99.90
7399;DHT22;3740;50.700;7.184;2023-12-20T00:58:10;8.40;99.90
7399;DHT22;3740;50.700;7.184;2023-12-20T01:00:35;8.50;99.90
7399;DHT22;3740;50.700;7.184;2023-12-20T01:03:01;8.50;99.90
7399;DHT22;3740;50.700;7.184;2023-12-20T01:05:27;8.50;99.90
7399;DHT22;3740;50.700;7.184;2023-12-20T01:07:52;8.50;99.90
7399;DHT22;3740;50.700;7.184;2023-12-20T01:10:18;8.40;99.90
7399;DHT22;3740;50.700;7.184;2023-12-20T01:12:44;8.40;99.90
7399;DHT22;3740;50.700;7.184;2023-12-20T01:15:10;8.40;99.90
7399;DHT22;3740;50.700;7.184;2023-12-20T01:17:35;8.40;99.90
7399;DHT22;3740;50.700;7.184;2023-12-20T01:20:01;8.40;99.90
7399;DHT22;3740;50.700;7.184;2023-12-20T01:22:27;8.40;99.90
7399;DHT22;3740;50.700;7.184;2023-12-20T01:24:52;8.30;99.90
7399;DHT22;3740;50.700;7.184;2023-12-20T01:27:18;8.30;99.90
7399;DHT22;3740;50.700;7.184;2023-12-20T01:29:44;8.20;99.90
7399;DHT22;3740;50.700;7.184;2023-12-20T01:32:09;8.20;99.90
7399;DHT22;3740;50.700;7.184;2023-12-20T01:34:35;8.10;99.90
7399;DHT22;3740;50.700;7.184;2023-12-20T01:37:01;8.00;99.90
7399;DHT22;3740;50.700;7.184;2023-12-20T01:39:27;8.00;99.90
7399;DHT22;3740;50.700;7.184;2023-12-20T01:41:53;8.00;99.90
7399;DHT22;3740;50.700;7.184;2023-12-20T01:44:19;8.00;99.90
7399;DHT22;3740;50.700;7.184;2023-12-20T01:46:45;7.90;99.90
7399;DHT22;3740;50.700;7.184;2023-12-20T01:49:11;7.90;99.90
7399;DHT22;3740;50.700;7.184;2023-12-20T01:51:37;7.90;99.90
7399;DHT22;3740;50.700;7.184;2023-12-20T01:54:03;7.90;99.90
7399;DHT22;3740;50.700;7.184;2023-12-20T01:56:30;7.90;99.90
7399;DHT22;3740;50.700;7.184;2023-12-20T01:58:56;7.90;99.90
7399;DHT22;3740;50.700;7.184;2023-12-20T02:01:22;7.90;99.90
7399;DHT22;3740;50.700;7.184;2023-12-20T02:03:48;7.90;99.90
7399;DHT22;3740;50.700;7.184;2023-12-20T02:06:13;8.00;99.90
7399;DHT22;3740;50.700;7.184;2023-12-20T02:08:39;7.90;99.90
7399;DHT22;3740;50.700;7.184;2023-12-20T02:11:05;7.80;99.90
7399;DHT22;3740;50.700;7.184;2023-12-20T02:13:31;7.80;99.90
7399;DHT22;3740;50.700;7.184;2023-12-20T02:15:57;7.80;99.90
7399;DHT22;3740;50.700;7.184;2023-12-20T02:18:23;7.80;99.90
7399;DHT22;3740;50.700;7.184;2023-12-20T02:20:49;7.90;99.90
7399;DHT22;3740;50.700;7.184;2023-12-20T02:23:14;7.90;99.90
7399;DHT22;3740;50.700;7.184;2023-12-20T02:25:40;7.90;99.90
7399;DHT22;3740;50.700;7.184;2023-12-20T02:28:06;7.80;99.90
7399;DHT22;3740;50.700;7.184;2023-12-20T02:30:32;7.80;99.90
7399;DHT22;3740;50.700;7.184;2023-12-20T02:32:59;7.80;99.90
7399;DHT22;3740;50.700;7.184;2023-12-20T02:35:25;7.80;99.90
7399;DHT22;3740;50.700;7.184;2023-12-20T02:37:50;7.70;99.90
7399;DHT22;3740;50.700;7.184;2023-12-20T02:40:16;7.70;99.90
7399;DHT22;3740;50.700;7.184;2023-12-20T02:42:42;7.50;99.90
7399;DHT22;3740;50.700;7.184;2023-12-20T02:45:07;7.30;99.90
7399;DHT22;3740;50.700;7.184;2023-12-20T02:47:33;7.20;99.90
7399;DHT22;3740;50.700;7.184;2023-12-20T02:49:59;7.10;99.90
7399;DHT22;3740;50.700;7.184;2023-12-20T02:52:25;7.10;99.90
7399;DHT22;3740;50.700;7.184;2023-12-20T02:54:50;7.00;99.90
7399;DHT22;3740;50.700;7.184;2023-12-20T02:57:16;7.00;99.90
7399;DHT22;3740;50.700;7.184;2023-12-20T02:59:41;7.00;99.90
7399;DHT22;3740;50.700;7.184;2023-12-20T03:02:07;6.90;99.90
7399;DHT22;3740;50.700;7.184;2023-12-20T03:04:33;6.90;99.90
7399;DHT22;3740;50.700;7.184;2023-12-20T03:06:58;6.80;99.90
7399;DHT22;3740;50.700;7.184;2023-12-20T03:09:24;6.90;99.90
7399;DHT22;3740;50.700;7.184;2023-12-20T03:11:49;6.80;99.90
7399;DHT22;3740;50.700;7.184;2023-12-20T03:14:15;6.90;99.90
7399;DHT22;3740;50.700;7.184;2023-12-20T03:16:40;6.90;99.90
7399;DHT22;3740;50.700;7.184;2023-12-20T03:19:06;6.90;99.90
7399;DHT22;3740;50.700;7.184;2023-12-20T03:21:31;6.80;99.90
7399;DHT22;3740;50.700;7.184;2023-12-20T03:23:57;6.80;99.90
7399;DHT22;3740;50.700;7.184;2023-12-20T03:26:23;6.90;99.90
7399;DHT22;3740;50.700;7.184;2023-12-20T03:28:48;6.90;99.90
7399;DHT22;3740;50.700;7.184;2023-12-20T03:31:14;7.00;99.90
7399;DHT22;3740;50.700;7.184;2023-12-20T03:33:40;7.00;99.90
7399;DHT22;3740;50.700;7.184;2023-12-20T03:36:06;7.00;99.90
7399;DHT22;3740;50.700;7.184;2023-12-20T03:38:31;7.10;99.90
7399;DHT22;3740;50.700;7.184;2023-12-20T03:40:57;7.10;99.90
7399;DHT22;3740;50.700;7.184;2023-12-20T03:43:22;7.20;99.90
7399;DHT22;3740;50.700;7.184;2023-12-20T03:45:48;7.10;99.90
7399;DHT22;3740;50.700;7.184;2023-12-20T03:48:13;7.20;99.90
7399;DHT22;3740;50.700;7.184;2023-12-20T03:50:39;7.20;99.90
7399;DHT22;3740;50.700;7.184;2023-12-20T03:53:04;7.30;99.90
7399;DHT22;3740;50.700;7.184;2023-12-20T03:55:30;7.30;99.90
7399;DHT22;3740;50.700;7.184;2023-12-20T03:57:55;7.30;99.90
7399;DHT22;3740;50.700;7.184;2023-12-20T04:00:21;7.30;99.90
7399;DHT22;3740;50.700;7.184;2023-12-20T04:02:46;7.20;99.90
7399;DHT22;3740;50.700;7.184;2023-12-20T04:05:12;7.20;99.90
7399;DHT22;3740;50.700;7.184;2023-12-20T04:07:38;7.20;99.90
7399;DHT22;3740;50.700;7.184;2023-12-20T04:10:04;7.30;99.90
7399;DHT22;3740;50.700;7.184;2023-12-20T04:12:30;7.30;99.90
7399;DHT22;3740;50.700;7.184;2023-12-20T04:14:56;7.30;99.90
7399;DHT22;3740;50.700;7.184;2023-12-20T04:17:22;7.30;99.90
7399;DHT22;3740;50.700;7.184;2023-12-20T04:19:51;7.20;99.90
7399;DHT22;3740;50.700;7.184;2023-12-20T04:22:18;7.30;99.90
7399;DHT22;3740;50.700;7.184;2023-12-20T04:24:44;7.30;99.90
7399;DHT22;3740;50.700;7.184;2023-12-20T04:27:10;7.30;99.90
7399;DHT22;3740;50.700;7.184;2023-12-20T04:29:36;7.30;99.90
7399;DHT22;3740;50.700;7.184;2023-12-20T04:32:01;7.20;99.90
7399;DHT22;3740;50.700;7.184;2023-12-20T04:34:27;7.20;99.90
7399;DHT22;3740;50.700;7.184;2023-12-20T04:36:53;7.10;99.90
7399;DHT22;3740;50.700;7.184;2023-12-20T04:39:19;7.10;99.90
7399;DHT22;3740;50.700;7.184;2023-12-20T04:41:44;7.10;99.90
7399;DHT22;3740;50.700;7.184;2023-12-20T04:44:10;7.10;99.90
7399;DHT22;3740;50.700;7.184;2023-12-20T04:46:35;7.20;99.90
7399;DHT22;3740;50.700;7.184;2023-12-20T04:49:01;7.30;99.90
7399;DHT22;3740;50.700;7.184;2023-12-20T04:51:27;7.20;99.90
7399;DHT22;3740;50.700;7.184;2023-12-20T04:53:53;7.30;99.90
7399;DHT22;3740;50.700;7.184;2023-12-20T04:56:18;7.30;99.90
7399;DHT22;3740;50.700;7.184;2023-12-20T04:58:44;7.30;99.90
7399;DHT22;3740;50.700;7.184;2023-12-20T05:01:09;7.20;99.90
7399;DHT22;3740;50.700;7.184;2023-12-20T05:03:35;7.30;99.90
7399;DHT22;3740;50.700;7.184;2023-12-20T05:06:01;7.20;99.90
7399;DHT22;3740;50.700;7.184;2023-12-20T05:08:26;7.30;99.90
7399;DHT22;3740;50.700;7.184;2023-12-20T05:10:54;7.30;99.90
7399;DHT22;3740;50.700;7.184;2023-12-20T05:13:20;7.30;99.90
7399;DHT22;3740;50.700;7.184;2023-12-20T05:15:45;7.30;99.90
7399;DHT22;3740;50.700;7.184;2023-12-20T05:18:11;7.20;99.90
7399;DHT22;3740;50.700;7.184;2023-12-20T05:20:38;7.20;99.90
7399;DHT22;3740;50.700;7.184;2023-12-20T05:23:03;7.20;99.90
7399;DHT22;3740;50.700;7.184;2023-12-20T05:25:29;7.20;99.90
7399;DHT22;3740;50.700;7.184;2023-12-20T05:27:54;7.10;99.90
7399;DHT22;3740;50.700;7.184;2023-12-20T05:30:21;7.00;99.90
7399;DHT22;3740;50.700;7.184;2023-12-20T05:32:47;7.00;99.90
7399;DHT22;3740;50.700;7.184;2023-12-20T05:35:12;7.00;99.90
7399;DHT22;3740;50.700;7.184;2023-12-20T05:37:38;7.00;99.90
7399;DHT22;3740;50.700;7.184;2023-12-20T05:40:04;7.00;99.90
7399;DHT22;3740;50.700;7.184;2023-12-20T05:42:29;7.00;99.90
7399;DHT22;3740;50.700;7.184;2023-12-20T05:44:55;7.00;99.90
7399;DHT22;3740;50.700;7.184;2023-12-20T05:47:20;7.00;99.90
7399;DHT22;3740;50.700;7.184;2023-12-20T05:49:46;7.00;99.90
7399;DHT22;3740;50.700;7.184;2023-12-20T05:52:11;7.00;99.90
7399;DHT22;3740;50.700;7.184;2023-12-20T05:54:37;7.00;99.90
7399;DHT22;3740;50.700;7.184;2023-12-20T05:57:03;7.10;99.90
7399;DHT22;3740;50.700;7.184;2023-12-20T05:59:28;7.10;99.90
7399;DHT22;3740;50.700;7.184;2023-12-20T06:01:54;7.10;99.90
7399;DHT22;3740;50.700;7.184;2023-12-20T06:04:19;7.10;99.90
7399;DHT22;3740;50.700;7.184;2023-12-20T06:06:45;7.10;99.90
7399;DHT22;3740;50.700;7.184;2023-12-20T06:09:11;7.10;99.90
7399;DHT22;3740;50.700;7.184;2023-12-20T06:11:37;7.20;99.90
7399;DHT22;3740;50.700;7.184;2023-12-20T06:14:02;7.20;99.90
7399;DHT22;3740;50.700;7.184;2023-12-20T06:16:28;7.20;99.90
7399;DHT22;3740;50.700;7.184;2023-12-20T06:18:53;7.20;99.90
7399;DHT22;3740;50.700;7.184;2023-12-20T06:21:19;7.20;99.90
7399;DHT22;3740;50.700;7.184;2023-12-20T06:23:44;7.20;99.90
7399;DHT22;3740;50.700;7.184;2023-12-20T06:26:10;7.10;99.90
7399;DHT22;3740;50.700;7.184;2023-12-20T06:28:35;7.10;99.90
7399;DHT22;3740;50.700;7.184;2023-12-20T06:31:01;7.00;99.90
7399;DHT22;3740;50.700;7.184;2023-12-20T06:33:27;7.00;99.90
7399;DHT22;3740;50.700;7.184;2023-12-20T06:35:52;7.00;99.90
7399;DHT22;3740;50.700;7.184;2023-12-20T06:38:19;7.00;99.90
7399;DHT22;3740;50.700;7.184;2023-12-20T06:40:44;7.10;99.90
7399;DHT22;3740;50.700;7.184;2023-12-20T06:43:11;7.10;99.90
7399;DHT22;3740;50.700;7.184;2023-12-20T06:45:37;7.10;99.90
7399;DHT22;3740;50.700;7.184;2023-12-20T06:48:02;7.20;99.90
7399;DHT22;3740;50.700;7.184;2023-12-20T06:50:28;7.20;99.90
7399;DHT22;3740;50.700;7.184;2023-12-20T06:52:54;7.20;99.90
7399;DHT22;3740;50.700;7.184;2023-12-20T06:55:19;7.30;99.90
7399;DHT22;3740;50.700;7.184;2023-12-20T06:57:45;7.30;99.90
7399;DHT22;3740;50.700;7.184;2023-12-20T07:00:11;7.20;99.90
7399;DHT22;3740;50.700;7.184;2023-12-20T07:02:37;7.30;99.90
7399;DHT22;3740;50.700;7.184;2023-12-20T07:05:02;7.20;99.90
7399;DHT22;3740;50.700;7.184;2023-12-20T07:07:28;7.20;99.90
7399;DHT22;3740;50.700;7.184;2023-12-20T07:09:53;7.20;99.90
7399;DHT22;3740;50.700;7.184;2023-12-20T07:12:19;7.30;99.90
7399;DHT22;3740;50.700;7.184;2023-12-20T07:14:45;7.20;99.90
7399;DHT22;3740;50.700;7.184;2023-12-20T07:17:11;7.30;99.90
7399;DHT22;3740;50.700;7.184;2023-12-20T07:19:39;7.20;99.90
7399;DHT22;3740;50.700;7.184;2023-12-20T07:22:06;7.30;99.90
7399;DHT22;3740;50.700;7.184;2023-12-20T07:24:32;7.30;99.90
7399;DHT22;3740;50.700;7.184;2023-12-20T07:26:59;7.30;99.90
7399;DHT22;3740;50.700;7.184;2023-12-20T07:29:25;7.20;99.90
7399;DHT22;3740;50.700;7.184;2023-12-20T07:31:51;7.20;99.90
7399;DHT22;3740;50.700;7.184;2023-12-20T07:34:18;7.20;99.90
7399;DHT22;3740;50.700;7.184;2023-12-20T07:36:44;7.20;99.90
7399;DHT22;3740;50.700;7.184;2023-12-20T07:39:10;7.30;99.90
7399;DHT22;3740;50.700;7.184;2023-12-20T07:41:35;7.30;99.90
7399;DHT22;3740;50.700;7.184;2023-12-20T07:44:01;7.40;99.90
7399;DHT22;3740;50.700;7.184;2023-12-20T07:46:27;7.30;99.90
7399;DHT22;3740;50.700;7.184;2023-12-20T07:48:52;7.30;99.90
7399;DHT22;3740;50.700;7.184;2023-12-20T07:51:18;7.30;99.90
7399;DHT22;3740;50.700;7.184;2023-12-20T07:53:43;7.20;99.90
7399;DHT22;3740;50.700;7.184;2023-12-20T07:56:19;7.30;99.90
7399;DHT22;3740;50.700;7.184;2023-12-20T07:58:45;7.30;99.90
7399;DHT22;3740;50.700;7.184;2023-12-20T08:01:11;7.30;99.90
7399;DHT22;3740;50.700;7.184;2023-12-20T08:03:37;7.30;99.90
7399;DHT22;3740;50.700;7.184;2023-12-20T08:06:04;7.30;99.90
7399;DHT22;3740;50.700;7.184;2023-12-20T08:08:29;7.40;99.90
7399;DHT22;3740;50.700;7.184;2023-12-20T08:10:55;7.40;99.90
7399;DHT22;3740;50.700;7.184;2023-12-20T08:13:23;7.40;99.90
7399;DHT22;3740;50.700;7.184;2023-12-20T08:15:54;7.40;99.90
7399;DHT22;3740;50.700;7.184;2023-12-20T08:18:21;7.40;99.90
7399;DHT22;3740;50.700;7.184;2023-12-20T08:20:47;7.50;99.90
7399;DHT22;3740;50.700;7.184;2023-12-20T08:23:15;7.50;99.90
7399;DHT22;3740;50.700;7.184;2023-12-20T08:25:40;7.50;99.90
7399;DHT22;3740;50.700;7.184;2023-12-20T08:28:06;7.50;99.90
7399;DHT22;3740;50.700;7.184;2023-12-20T08:30:32;7.50;99.90
7399;DHT22;3740;50.700;7.184;2023-12-20T08:33:00;7.50;99.90
7399;DHT22;3740;50.700;7.184;2023-12-20T08:35:26;7.50;99.90
7399;DHT22;3740;50.700;7.184;2023-12-20T08:37:51;7.50;99.90
7399;DHT22;3740;50.700;7.184;2023-12-20T08:40:17;7.60;99.90
7399;DHT22;3740;50.700;7.184;2023-12-20T08:42:42;7.60;99.90
7399;DHT22;3740;50.700;7.184;2023-12-20T08:45:08;7.60;99.90
7399;DHT22;3740;50.700;7.184;2023-12-20T08:47:34;7.70;99.90
7399;DHT22;3740;50.700;7.184;2023-12-20T08:49:59;7.60;99.90
7399;DHT22;3740;50.700;7.184;2023-12-20T08:52:26;7.70;99.90
7399;DHT22;3740;50.700;7.184;2023-12-20T08:54:53;7.70;99.90
7399;DHT22;3740;50.700;7.184;2023-12-20T08:57:22;7.70;99.90
7399;DHT22;3740;50.700;7.184;2023-12-20T08:59:49;7.60;99.90
7399;DHT22;3740;50.700;7.184;2023-12-20T09:02:15;7.60;99.90
7399;DHT22;3740;50.700;7.184;2023-12-20T09:04:41;7.60;99.90
7399;DHT22;3740;50.700;7.184;2023-12-20T09:07:06;7.60;99.90
7399;DHT22;3740;50.700;7.184;2023-12-20T09:09:33;7.60;99.90
7399;DHT22;3740;50.700;7.184;2023-12-20T09:11:59;7.70;99.90
7399;DHT22;3740;50.700;7.184;2023-12-20T09:14:24;7.70;99.90
7399;DHT22;3740;50.700;7.184;2023-12-20T09:16:50;7.80;99.90
7399;DHT22;3740;50.700;7.184;2023-12-20T09:19:17;7.80;99.90
7399;DHT22;3740;50.700;7.184;2023-12-20T09:21:43;8.00;99.90
7399;DHT22;3740;50.700;7.184;2023-12-20T09:24:08;7.90;99.90
7399;DHT22;3740;50.700;7.184;2023-12-20T09:26:34;7.90;99.90
7399;DHT22;3740;50.700;7.184;2023-12-20T09:29:00;7.80;99.90
7399;DHT22;3740;50.700;7.184;2023-12-20T09:31:25;7.80;99.90
7399;DHT22;3740;50.700;7.184;2023-12-20T09:33:51;7.90;99.90
7399;DHT22;3740;50.700;7.184;2023-12-20T09:36:17;7.90;99.90
7399;DHT22;3740;50.700;7.184;2023-12-20T09:38:42;7.90;99.90
7399;DHT22;3740;50.700;7.184;2023-12-20T09:41:08;8.00;99.90
7399;DHT22;3740;50.700;7.184;2023-12-20T09:43:37;8.10;99.90
7399;DHT22;3740;50.700;7.184;2023-12-20T09:46:05;8.00;99.90
7399;DHT22;3740;50.700;7.184;2023-12-20T09:48:33;8.00;99.90
7399;DHT22;3740;50.700;7.184;2023-12-20T09:50:59;8.00;99.90
7399;DHT22;3740;50.700;7.184;2023-12-20T09:53:25;8.00;99.90
7399;DHT22;3740;50.700;7.184;2023-12-20T09:55:58;8.10;99.90
7399;DHT22;3740;50.700;7.184;2023-12-20T09:58:24;7.90;99.90
7399;DHT22;3740;50.700;7.184;2023-12-20T10:00:50;7.80;99.90
7399;DHT22;3740;50.700;7.184;2023-12-20T10:03:17;7.80;99.90
7399;DHT22;3740;50.700;7.184;2023-12-20T10:05:44;7.80;99.90
7399;DHT22;3740;50.700;7.184;2023-12-20T10:08:10;7.80;99.90
7399;DHT22;3740;50.700;7.184;2023-12-20T10:10:35;7.80;99.90
7399;DHT22;3740;50.700;7.184;2023-12-20T10:13:04;7.80;99.90
7399;DHT22;3740;50.700;7.184;2023-12-20T10:15:32;7.90;99.90
7399;DHT22;3740;50.700;7.184;2023-12-20T10:17:57;7.90;99.90
7399;DHT22;3740;50.700;7.184;2023-12-20T10:20:23;7.90;99.90
7399;DHT22;3740;50.700;7.184;2023-12-20T10:22:49;7.80;99.90
7399;DHT22;3740;50.700;7.184;2023-12-20T10:25:15;7.90;99.90
7399;DHT22;3740;50.700;7.184;2023-12-20T10:27:40;7.90;99.90
7399;DHT22;3740;50.700;7.184;2023-12-20T10:30:06;7.90;99.90
7399;DHT22;3740;50.700;7.184;2023-12-20T10:32:32;7.90;99.90
7399;DHT22;3740;50.700;7.184;2023-12-20T10:34:58;7.90;99.90
7399;DHT22;3740;50.700;7.184;2023-12-20T10:37:24;7.90;99.90
7399;DHT22;3740;50.700;7.184;2023-12-20T10:39:54;7.90;99.90
7399;DHT22;3740;50.700;7.184;2023-12-20T10:42:26;8.10;99.90
7399;DHT22;3740;50.700;7.184;2023-12-20T10:44:52;8.10;99.90
7399;DHT22;3740;50.700;7.184;2023-12-20T10:47:19;8.10;99.90
7399;DHT22;3740;50.700;7.184;2023-12-20T10:49:45;8.00;99.90
7399;DHT22;3740;50.700;7.184;2023-12-20T10:52:12;8.00;99.90
7399;DHT22;3740;50.700;7.184;2023-12-20T10:54:39;8.20;99.90
7399;DHT22;3740;50.700;7.184;2023-12-20T10:57:06;8.10;99.90
7399;DHT22;3740;50.700;7.184;2023-12-20T10:59:37;8.10;99.90
7399;DHT22;3740;50.700;7.184;2023-12-20T11:02:04;8.10;99.90
7399;DHT22;3740;50.700;7.184;2023-12-20T11:04:55;8.10;99.90
7399;DHT22;3740;50.700;7.184;2023-12-20T11:07:28;8.20;99.90
7399;DHT22;3740;50.700;7.184;2023-12-20T11:10:38;8.10;99.90
7399;DHT22;3740;50.700;7.184;2023-12-20T11:13:06;8.10;99.90
7399;DHT22;3740;50.700;7.184;2023-12-20T11:15:35;8.20;99.90
7399;DHT22;3740;50.700;7.184;2023-12-20T11:18:01;8.10;99.90
7399;DHT22;3740;50.700;7.184;2023-12-20T11:20:39;8.10;99.90
7399;DHT22;3740;50.700;7.184;2023-12-20T11:23:06;8.10;99.90
7399;DHT22;3740;50.700;7.184;2023-12-20T11:25:54;8.10;99.90
7399;DHT22;3740;50.700;7.184;2023-12-20T11:28:25;8.10;99.90
7399;DHT22;3740;50.700;7.184;2023-12-20T11:30:55;8.20;99.90
7399;DHT22;3740;50.700;7.184;2023-12-20T11:33:26;8.10;99.90
7399;DHT22;3740;50.700;7.184;2023-12-20T11:35:52;8.10;99.90
7399;DHT22;3740;50.700;7.184;2023-12-20T11:38:20;8.00;99.90
7399;DHT22;3740;50.700;7.184;2023-12-20T11:40:48;7.90;99.90
7399;DHT22;3740;50.700;7.184;2023-12-20T11:43:36;7.90;99.90
7399;DHT22;3740;50.700;7.184;2023-12-20T11:46:08;7.80;99.90
7399;DHT22;3740;50.700;7.184;2023-12-20T11:48:40;8.00;99.90
7399;DHT22;3740;50.700;7.184;2023-12-20T11:51:10;7.90;99.90
7399;DHT22;3740;50.700;7.184;2023-12-20T11:53:36;7.80;99.90
7399;DHT22;3740;50.700;7.184;2023-12-20T11:56:03;7.90;99.90
7399;DHT22;3740;50.700;7.184;2023-12-20T11:58:29;8.00;99.90
7399;DHT22;3740;50.700;7.184;2023-12-20T12:00:55;8.10;99.90
7399;DHT22;3740;50.700;7.184;2023-12-20T12:03:20;8.10;99.90
7399;DHT22;3740;50.700;7.184;2023-12-20T12:05:47;8.00;99.90
7399;DHT22;3740;50.700;7.184;2023-12-20T12:08:13;8.00;99.90
7399;DHT22;3740;50.700;7.184;2023-12-20T12:10:39;8.10;99.90
7399;DHT22;3740;50.700;7.184;2023-12-20T12:13:05;8.00;99.90
7399;DHT22;3740;50.700;7.184;2023-12-20T12:15:30;8.00;99.90
7399;DHT22;3740;50.700;7.184;2023-12-20T12:17:56;8.20;99.90
7399;DHT22;3740;50.700;7.184;2023-12-20T12:20:23;8.20;99.90
7399;DHT22;3740;50.700;7.184;2023-12-20T12:22:59;8.30;99.90
7399;DHT22;3740;50.700;7.184;2023-12-20T12:25:26;8.40;99.90
7399;DHT22;3740;50.700;7.184;2023-12-20T12:27:52;8.20;99.90
7399;DHT22;3740;50.700;7.184;2023-12-20T12:30:17;8.30;99.90
7399;DHT22;3740;50.700;7.184;2023-12-20T12:32:46;8.50;99.90
7399;DHT22;3740;50.700;7.184;2023-12-20T12:35:12;8.40;99.90
7399;DHT22;3740;50.700;7.184;2023-12-20T12:37:38;8.40;99.90
7399;DHT22;3740;50.700;7.184;2023-12-20T12:40:15;8.50;99.90
7399;DHT22;3740;50.700;7.184;2023-12-20T12:42:42;8.60;99.90
7399;DHT22;3740;50.700;7.184;2023-12-20T12:45:09;8.70;99.90
7399;DHT22;3740;50.700;7.184;2023-12-20T12:47:35;8.70;99.90
7399;DHT22;3740;50.700;7.184;2023-12-20T12:50:01;8.70;99.90
7399;DHT22;3740;50.700;7.184;2023-12-20T12:52:26;8.60;99.90
7399;DHT22;3740;50.700;7.184;2023-12-20T12:54:52;8.60;99.90
7399;DHT22;3740;50.700;7.184;2023-12-20T12:57:18;8.50;99.90
7399;DHT22;3740;50.700;7.184;2023-12-20T12:59:45;8.50;99.90
7399;DHT22;3740;50.700;7.184;2023-12-20T13:02:12;8.60;99.90
7399;DHT22;3740;50.700;7.184;2023-12-20T13:04:38;8.30;99.90
7399;DHT22;3740;50.700;7.184;2023-12-20T13:07:04;8.40;99.90
7399;DHT22;3740;50.700;7.184;2023-12-20T13:09:30;8.40;99.90
7399;DHT22;3740;50.700;7.184;2023-12-20T13:11:55;8.40;99.90
7399;DHT22;3740;50.700;7.184;2023-12-20T13:14:21;8.40;99.90
7399;DHT22;3740;50.700;7.184;2023-12-20T13:16:47;8.40;99.90
7399;DHT22;3740;50.700;7.184;2023-12-20T13:19:12;8.40;99.90
7399;DHT22;3740;50.700;7.184;2023-12-20T13:21:38;8.40;99.90
7399;DHT22;3740;50.700;7.184;2023-12-20T13:24:05;8.40;99.90
7399;DHT22;3740;50.700;7.184;2023-12-20T13:26:31;8.40;99.90
7399;DHT22;3740;50.700;7.184;2023-12-20T13:28:56;8.40;99.90
7399;DHT22;3740;50.700;7.184;2023-12-20T13:31:22;8.20;99.90
7399;DHT22;3740;50.700;7.184;2023-12-20T13:33:47;8.30;99.90
7399;DHT22;3740;50.700;7.184;2023-12-20T13:36:13;8.40;99.90
7399;DHT22;3740;50.700;7.184;2023-12-20T13:38:39;8.40;99.90
7399;DHT22;3740;50.700;7.184;2023-12-20T13:41:04;8.30;99.90
7399;DHT22;3740;50.700;7.184;2023-12-20T13:43:31;8.40;99.90
7399;DHT22;3740;50.700;7.184;2023-12-20T13:46:01;8.40;99.90
7399;DHT22;3740;50.700;7.184;2023-12-20T13:48:26;8.40;99.90
7399;DHT22;3740;50.700;7.184;2023-12-20T13:50:52;8.30;99.90
7399;DHT22;3740;50.700;7.184;2023-12-20T13:53:17;8.20;99.90
7399;DHT22;3740;50.700;7.184;2023-12-20T13:55:44;8.10;99.90
7399;DHT22;3740;50.700;7.184;2023-12-20T13:58:10;8.10;99.90
7399;DHT22;3740;50.700;7.184;2023-12-20T14:00:36;8.10;99.90
7399;DHT22;3740;50.700;7.184;2023-12-20T14:03:03;8.10;99.90
7399;DHT22;3740;50.700;7.184;2023-12-20T14:05:28;8.10;99.90
7399;DHT22;3740;50.700;7.184;2023-12-20T14:07:54;7.90;99.90
7399;DHT22;3740;50.700;7.184;2023-12-20T14:10:20;7.90;99.90
7399;DHT22;3740;50.700;7.184;2023-12-20T14:12:45;8.00;99.90
7399;DHT22;3740;50.700;7.184;2023-12-20T14:15:11;8.00;99.90
7399;DHT22;3740;50.700;7.184;2023-12-20T14:17:39;8.00;99.90
7399;DHT22;3740;50.700;7.184;2023-12-20T14:20:08;8.00;99.90
7399;DHT22;3740;50.700;7.184;2023-12-20T14:22:34;8.00;99.90
7399;DHT22;3740;50.700;7.184;2023-12-20T14:25:00;7.90;99.90
7399;DHT22;3740;50.700;7.184;2023-12-20T14:27:26;8.00;99.90
7399;DHT22;3740;50.700;7.184;2023-12-20T14:29:53;8.00;99.90
7399;DHT22;3740;50.700;7.184;2023-12-20T14:32:19;8.00;99.90
7399;DHT22;3740;50.700;7.184;2023-12-20T14:34:45;8.10;99.90
7399;DHT22;3740;50.700;7.184;2023-12-20T14:37:11;8.10;99.90
7399;DHT22;3740;50.700;7.184;2023-12-20T14:39:36;8.00;99.90
7399;DHT22;3740;50.700;7.184;2023-12-20T14:42:07;8.10;99.90
7399;DHT22;3740;50.700;7.184;2023-12-20T14:44:37;8.00;99.90
7399;DHT22;3740;50.700;7.184;2023-12-20T14:47:03;8.10;99.90
7399;DHT22;3740;50.700;7.184;2023-12-20T14:49:29;8.10;99.90
7399;DHT22;3740;50.700;7.184;2023-12-20T14:51:55;8.20;99.90
7399;DHT22;3740;50.700;7.184;2023-12-20T14:54:21;8.30;99.90
7399;DHT22;3740;50.700;7.184;2023-12-20T14:56:47;8.40;99.90
7399;DHT22;3740;50.700;7.184;2023-12-20T14:59:13;8.40;99.90
7399;DHT22;3740;50.700;7.184;2023-12-20T15:01:38;8.40;99.90
7399;DHT22;3740;50.700;7.184;2023-12-20T15:04:06;8.50;99.90
7399;DHT22;3740;50.700;7.184;2023-12-20T15:06:32;8.40;99.90
7399;DHT22;3740;50.700;7.184;2023-12-20T15:08:58;8.30;99.90
7399;DHT22;3740;50.700;7.184;2023-12-20T15:11:24;8.40;99.90
7399;DHT22;3740;50.700;7.184;2023-12-20T15:13:49;8.40;99.90
7399;DHT22;3740;50.700;7.184;2023-12-20T15:16:21;8.80;99.90
7399;DHT22;3740;50.700;7.184;2023-12-20T15:18:46;8.30;99.90
7399;DHT22;3740;50.700;7.184;2023-12-20T15:21:12;8.20;99.90
7399;DHT22;3740;50.700;7.184;2023-12-20T15:23:37;8.20;99.90
7399;DHT22;3740;50.700;7.184;2023-12-20T15:26:03;8.30;99.90
7399;DHT22;3740;50.700;7.184;2023-12-20T15:28:30;8.30;99.90
7399;DHT22;3740;50.700;7.184;2023-12-20T15:30:55;8.30;99.90
7399;DHT22;3740;50.700;7.184;2023-12-20T15:33:22;8.20;99.90
7399;DHT22;3740;50.700;7.184;2023-12-20T15:35:47;8.20;99.90
7399;DHT22;3740;50.700;7.184;2023-12-20T15:38:13;8.20;99.90
7399;DHT22;3740;50.700;7.184;2023-12-20T15:40:39;8.20;99.90
7399;DHT22;3740;50.700;7.184;2023-12-20T15:43:04;8.30;99.90
7399;DHT22;3740;50.700;7.184;2023-12-20T15:45:30;8.30;99.90
7399;DHT22;3740;50.700;7.184;2023-12-20T15:47:56;8.30;99.90
7399;DHT22;3740;50.700;7.184;2023-12-20T15:50:21;8.20;99.90
7399;DHT22;3740;50.700;7.184;2023-12-20T15:52:47;8.20;99.90
7399;DHT22;3740;50.700;7.184;2023-12-20T15:55:13;8.20;99.90
7399;DHT22;3740;50.700;7.184;2023-12-20T15:57:38;8.20;99.90
7399;DHT22;3740;50.700;7.184;2023-12-20T16:00:05;8.20;99.90
7399;DHT22;3740;50.700;7.184;2023-12-20T16:02:31;8.20;99.90
7399;DHT22;3740;50.700;7.184;2023-12-20T16:04:56;8.30;99.90
7399;DHT22;3740;50.700;7.184;2023-12-20T16:07:22;8.30;99.90
7399;DHT22;3740;50.700;7.184;2023-12-20T16:09:48;8.20;99.90
7399;DHT22;3740;50.700;7.184;2023-12-20T16:12:13;8.40;99.90